D:gle Sibu — 9VIJ3 — position and weather

sailwx.info

Track history (hours):
 
Tides and Currents Weather Stations Pressure Air Temp Water Temp Dewpoint Dewpoint Depression Visibility Wind Speed Wind Dir Waves Ship Positions

D:gle Sibu

Last reported at 2018-Jan-11 18:45 UTC. Time now 2018-Jan-20 13:11 UTC.
Position N 29°47' W 093°21'.
Warning: this ship's position is 8 days out of date.

Length 243 m.

Type: Ship. MMSI: 465862000.

Date/timePositionNaut miles runAvg speedWind from/ knotsBaromVisibWave heightAir tempDewpointWater temp
2018-Jan-11 18:45N 29°47' W 093°21'2 6.0
2018-Jan-11 18:24N 29°49' W 093°21'4 9.1
2018-Jan-11 18:00N 29°53' W 093°21'5 9.5
2018-Jan-11 17:31N 29°57' W 093°20'14 5.7
2018-Jan-11 15:06N 30°11' W 093°18'0 0.7
2018-Jan-11 14:58N 30°11' W 093°18'0 0.1
2018-Jan-11 14:28N 30°11' W 093°19'0 0.0
2018-Jan-11 13:58N 30°11' W 093°18'0 0.0
2018-Jan-11 13:28N 30°11' W 093°18'0 0.0
2018-Jan-11 12:58N 30°11' W 093°18'0 0.0
2018-Jan-11 12:28N 30°11' W 093°19'0 0.0
2018-Jan-11 11:58N 30°11' W 093°19'0 0.0
2018-Jan-11 11:28N 30°11' W 093°19'0 0.0
2018-Jan-11 10:58N 30°11' W 093°19'0 0.0
2018-Jan-11 10:28N 30°11' W 093°19'0 0.0
2018-Jan-11 09:58N 30°11' W 093°19'0 0.0
2018-Jan-11 09:28N 30°11' W 093°19'0 0.0
2018-Jan-11 08:58N 30°11' W 093°19'0 0.0
2018-Jan-11 08:28N 30°11' W 093°19'0 0.0
2018-Jan-11 07:58N 30°11' W 093°19'0 0.0
2018-Jan-11 07:28N 30°11' W 093°19'0 0.0
2018-Jan-11 06:58N 30°11' W 093°19'0 0.0
2018-Jan-11 06:28N 30°11' W 093°19'0 0.0
2018-Jan-11 05:58N 30°11' W 093°19'0 0.0
2018-Jan-11 05:28N 30°11' W 093°19'0 0.0
2018-Jan-11 04:58N 30°11' W 093°19'0 0.0
2018-Jan-11 04:28N 30°11' W 093°19'0 0.0
2018-Jan-11 03:58N 30°11' W 093°19'0 0.0
2018-Jan-11 03:28N 30°11' W 093°19'0 0.0
2018-Jan-11 02:58N 30°11' W 093°19'0 0.0
2018-Jan-11 02:28N 30°11' W 093°19'0 0.0
2018-Jan-11 01:58N 30°11' W 093°19'0 0.0
2018-Jan-11 01:25N 30°11' W 093°18'0 0.0
2018-Jan-11 00:58N 30°11' W 093°18'0 0.0
2018-Jan-11 00:28N 30°11' W 093°18'0 0.0
2018-Jan-10 23:58N 30°11' W 093°18'0 0.0
2018-Jan-10 23:28N 30°11' W 093°18'0 0.0
2018-Jan-10 22:58N 30°11' W 093°18'0 0.0
2018-Jan-10 22:28N 30°11' W 093°18'0 0.0
2018-Jan-10 21:58N 30°11' W 093°18'0 0.0
2018-Jan-10 21:28N 30°11' W 093°19'0 0.0
2018-Jan-10 20:58N 30°11' W 093°19'0 0.0
2018-Jan-10 20:28N 30°11' W 093°19'0 0.0
2018-Jan-10 19:58N 30°11' W 093°19'0 0.0
2018-Jan-10 19:28N 30°11' W 093°19'0 0.0
2018-Jan-10 18:58N 30°11' W 093°19'0 0.0
2018-Jan-10 18:28N 30°11' W 093°19'0 0.1
2018-Jan-10 17:58N 30°11' W 093°19'0 0.0
2018-Jan-10 17:28N 30°11' W 093°18'0 0.0
2018-Jan-10 16:58N 30°11' W 093°18'0 0.0
2018-Jan-10 16:30N 30°11' W 093°18'1 1.2
2018-Jan-10 16:00N 30°11' W 093°19'1 2.2
2018-Jan-10 15:30N 30°10' W 093°20'0 0.0
2018-Jan-10 15:00N 30°10' W 093°20'0 0.0
2018-Jan-10 14:30N 30°10' W 093°20'0 0.0
2018-Jan-10 14:00N 30°10' W 093°20'0 0.0
2018-Jan-10 13:30N 30°10' W 093°20'0 0.0
2018-Jan-10 13:00N 30°10' W 093°20'0 0.0
2018-Jan-10 12:30N 30°10' W 093°20'0 0.0
2018-Jan-10 12:00N 30°10' W 093°20'0 0.0
2018-Jan-10 11:30N 30°10' W 093°20'0 0.0
2018-Jan-10 11:00N 30°10' W 093°20'0 0.0
2018-Jan-10 10:30N 30°10' W 093°20'0 0.0
2018-Jan-10 10:00N 30°10' W 093°20'0 0.0
2018-Jan-10 09:30N 30°10' W 093°20'0 0.0
2018-Jan-10 09:00N 30°10' W 093°20'0 0.0
2018-Jan-10 08:30N 30°10' W 093°20'0 0.0
2018-Jan-10 08:00N 30°10' W 093°20'0 0.0
2018-Jan-10 07:30N 30°10' W 093°20'0 0.0
2018-Jan-10 07:00N 30°10' W 093°20'0 0.0
2018-Jan-10 06:30N 30°10' W 093°20'0 0.0
2018-Jan-10 06:00N 30°10' W 093°20'0 0.0
2018-Jan-10 05:30N 30°10' W 093°20'0 0.0
2018-Jan-10 05:00N 30°10' W 093°20'0 0.0
2018-Jan-10 04:30N 30°10' W 093°20'0 0.0
2018-Jan-10 04:00N 30°10' W 093°20'0 0.0
2018-Jan-10 03:30N 30°10' W 093°20'0 0.0
2018-Jan-10 03:00N 30°10' W 093°20'0 0.0
2018-Jan-10 02:30N 30°10' W 093°20'0 0.0
2018-Jan-10 02:00N 30°10' W 093°20'0 0.0
2018-Jan-10 01:30N 30°10' W 093°20'0 0.0
2018-Jan-10 01:00N 30°10' W 093°20'0 0.0
2018-Jan-10 00:30N 30°10' W 093°20'0 0.0
2018-Jan-10 00:00N 30°10' W 093°20'0 0.0
2018-Jan-09 23:30N 30°10' W 093°20'0 0.0
2018-Jan-09 23:00N 30°10' W 093°20'0 0.0
2018-Jan-09 22:30N 30°10' W 093°20'0 0.0
2018-Jan-09 22:00N 30°10' W 093°20'0 0.0
2018-Jan-09 21:30N 30°10' W 093°20'0 0.0
2018-Jan-09 21:00N 30°10' W 093°20'0 0.0
2018-Jan-09 20:30N 30°10' W 093°20'0 0.0
2018-Jan-09 20:00N 30°10' W 093°20'0 0.0
2018-Jan-09 19:30N 30°10' W 093°20'0 0.0
2018-Jan-09 19:00N 30°10' W 093°20'0 0.0
2018-Jan-09 18:30N 30°10' W 093°20'0 0.0
2018-Jan-09 18:00N 30°10' W 093°20'0 0.0
2018-Jan-09 17:30N 30°10' W 093°20'0 0.0
2018-Jan-09 17:00N 30°10' W 093°20'0 0.0
2018-Jan-09 16:30N 30°10' W 093°20'0 0.0
2018-Jan-09 16:00N 30°10' W 093°20'0 0.0
2018-Jan-09 15:30N 30°10' W 093°20'0 0.0
2018-Jan-09 15:00N 30°10' W 093°20'0 0.0
2018-Jan-09 14:30N 30°10' W 093°20'0 0.0
2018-Jan-09 14:00N 30°10' W 093°20'0 0.0
2018-Jan-09 13:30N 30°10' W 093°20'0 0.0
2018-Jan-09 13:00N 30°10' W 093°20'0 0.0
2018-Jan-09 12:30N 30°10' W 093°20'0 0.0
2018-Jan-09 12:00N 30°10' W 093°20'0 0.0
2018-Jan-09 11:30N 30°10' W 093°20'0 0.0
2018-Jan-09 11:00N 30°10' W 093°20'0 0.0
2018-Jan-09 10:30N 30°10' W 093°20'0 0.0
2018-Jan-09 10:00N 30°10' W 093°20'0 0.0
2018-Jan-09 09:30N 30°10' W 093°20'0 0.0
2018-Jan-09 09:00N 30°10' W 093°20'0 0.0
2018-Jan-09 08:30N 30°10' W 093°20'0 0.0
2018-Jan-09 08:00N 30°10' W 093°20'0 0.0
2018-Jan-09 07:30N 30°10' W 093°20'0 0.0
2018-Jan-09 07:00N 30°10' W 093°20'0 0.0
2018-Jan-09 06:30N 30°10' W 093°20'0 0.0
2018-Jan-09 06:00N 30°10' W 093°20'1 1.1
2018-Jan-09 05:31N 30°09' W 093°20'3 5.4
2018-Jan-09 05:00N 30°06' W 093°20'3 5.9
2018-Jan-09 04:31N 30°03' W 093°20'3 6.0
2018-Jan-09 04:00N 30°00' W 093°20'3 6.4
2018-Jan-09 03:30N 29°57' W 093°20'4 7.1
2018-Jan-09 03:01N 29°54' W 093°21'4 7.9
2018-Jan-09 02:30N 29°50' W 093°21'4 7.1
2018-Jan-09 02:01N 29°46' W 093°21'  
Track history (hours):
 
Tides and Currents Weather Stations Pressure Air Temp Water Temp Dewpoint Dewpoint Depression Visibility Wind Speed Wind Dir Waves Ship Positions

D:gle Sibu

Last reported at 2018-Jan-11 18:45 UTC. Time now 2018-Jan-20 13:11 UTC.
Position N 29°47' W 093°21'.
Warning: this ship's position is 8 days out of date.

Length 243 m.

Type: Ship. MMSI: 465862000.

Date/timePositionNaut miles runAvg speedWind from/ knotsBaromVisibWave heightAir tempDewpointWater temp
2018-Jan-11 18:45N 29°47' W 093°21'2 6.0
2018-Jan-11 18:24N 29°49' W 093°21'4 9.1
2018-Jan-11 18:00N 29°53' W 093°21'5 9.5
2018-Jan-11 17:31N 29°57' W 093°20'14 5.7
2018-Jan-11 15:06N 30°11' W 093°18'0 0.7
2018-Jan-11 14:58N 30°11' W 093°18'0 0.1
2018-Jan-11 14:28N 30°11' W 093°19'0 0.0
2018-Jan-11 13:58N 30°11' W 093°18'0 0.0
2018-Jan-11 13:28N 30°11' W 093°18'0 0.0
2018-Jan-11 12:58N 30°11' W 093°18'0 0.0
2018-Jan-11 12:28N 30°11' W 093°19'0 0.0
2018-Jan-11 11:58N 30°11' W 093°19'0 0.0
2018-Jan-11 11:28N 30°11' W 093°19'0 0.0
2018-Jan-11 10:58N 30°11' W 093°19'0 0.0
2018-Jan-11 10:28N 30°11' W 093°19'0 0.0
2018-Jan-11 09:58N 30°11' W 093°19'0 0.0
2018-Jan-11 09:28N 30°11' W 093°19'0 0.0
2018-Jan-11 08:58N 30°11' W 093°19'0 0.0
2018-Jan-11 08:28N 30°11' W 093°19'0 0.0
2018-Jan-11 07:58N 30°11' W 093°19'0 0.0
2018-Jan-11 07:28N 30°11' W 093°19'0 0.0
2018-Jan-11 06:58N 30°11' W 093°19'0 0.0
2018-Jan-11 06:28N 30°11' W 093°19'0 0.0
2018-Jan-11 05:58N 30°11' W 093°19'0 0.0
2018-Jan-11 05:28N 30°11' W 093°19'0 0.0
2018-Jan-11 04:58N 30°11' W 093°19'0 0.0
2018-Jan-11 04:28N 30°11' W 093°19'0 0.0
2018-Jan-11 03:58N 30°11' W 093°19'0 0.0
2018-Jan-11 03:28N 30°11' W 093°19'0 0.0
2018-Jan-11 02:58N 30°11' W 093°19'0 0.0
2018-Jan-11 02:28N 30°11' W 093°19'0 0.0
2018-Jan-11 01:58N 30°11' W 093°19'0 0.0
2018-Jan-11 01:25N 30°11' W 093°18'0 0.0
2018-Jan-11 00:58N 30°11' W 093°18'0 0.0
2018-Jan-11 00:28N 30°11' W 093°18'0 0.0
2018-Jan-10 23:58N 30°11' W 093°18'0 0.0
2018-Jan-10 23:28N 30°11' W 093°18'0 0.0
2018-Jan-10 22:58N 30°11' W 093°18'0 0.0
2018-Jan-10 22:28N 30°11' W 093°18'0 0.0
2018-Jan-10 21:58N 30°11' W 093°18'0 0.0
2018-Jan-10 21:28N 30°11' W 093°19'0 0.0
2018-Jan-10 20:58N 30°11' W 093°19'0 0.0
2018-Jan-10 20:28N 30°11' W 093°19'0 0.0
2018-Jan-10 19:58N 30°11' W 093°19'0 0.0
2018-Jan-10 19:28N 30°11' W 093°19'0 0.0
2018-Jan-10 18:58N 30°11' W 093°19'0 0.0
2018-Jan-10 18:28N 30°11' W 093°19'0 0.1
2018-Jan-10 17:58N 30°11' W 093°19'0 0.0
2018-Jan-10 17:28N 30°11' W 093°18'0 0.0
2018-Jan-10 16:58N 30°11' W 093°18'0 0.0
2018-Jan-10 16:30N 30°11' W 093°18'1 1.2
2018-Jan-10 16:00N 30°11' W 093°19'1 2.2
2018-Jan-10 15:30N 30°10' W 093°20'0 0.0
2018-Jan-10 15:00N 30°10' W 093°20'0 0.0
2018-Jan-10 14:30N 30°10' W 093°20'0 0.0
2018-Jan-10 14:00N 30°10' W 093°20'0 0.0
2018-Jan-10 13:30N 30°10' W 093°20'0 0.0
2018-Jan-10 13:00N 30°10' W 093°20'0 0.0
2018-Jan-10 12:30N 30°10' W 093°20'0 0.0
2018-Jan-10 12:00N 30°10' W 093°20'0 0.0
2018-Jan-10 11:30N 30°10' W 093°20'0 0.0
2018-Jan-10 11:00N 30°10' W 093°20'0 0.0
2018-Jan-10 10:30N 30°10' W 093°20'0 0.0
2018-Jan-10 10:00N 30°10' W 093°20'0 0.0
2018-Jan-10 09:30N 30°10' W 093°20'0 0.0
2018-Jan-10 09:00N 30°10' W 093°20'0 0.0
2018-Jan-10 08:30N 30°10' W 093°20'0 0.0
2018-Jan-10 08:00N 30°10' W 093°20'0 0.0
2018-Jan-10 07:30N 30°10' W 093°20'0 0.0
2018-Jan-10 07:00N 30°10' W 093°20'0 0.0
2018-Jan-10 06:30N 30°10' W 093°20'0 0.0
2018-Jan-10 06:00N 30°10' W 093°20'0 0.0
2018-Jan-10 05:30N 30°10' W 093°20'0 0.0
2018-Jan-10 05:00N 30°10' W 093°20'0 0.0
2018-Jan-10 04:30N 30°10' W 093°20'0 0.0
2018-Jan-10 04:00N 30°10' W 093°20'0 0.0
2018-Jan-10 03:30N 30°10' W 093°20'0 0.0
2018-Jan-10 03:00N 30°10' W 093°20'0 0.0
2018-Jan-10 02:30N 30°10' W 093°20'0 0.0
2018-Jan-10 02:00N 30°10' W 093°20'0 0.0
2018-Jan-10 01:30N 30°10' W 093°20'0 0.0
2018-Jan-10 01:00N 30°10' W 093°20'0 0.0
2018-Jan-10 00:30N 30°10' W 093°20'0 0.0
2018-Jan-10 00:00N 30°10' W 093°20'0 0.0
2018-Jan-09 23:30N 30°10' W 093°20'0 0.0
2018-Jan-09 23:00N 30°10' W 093°20'0 0.0
2018-Jan-09 22:30N 30°10' W 093°20'0 0.0
2018-Jan-09 22:00N 30°10' W 093°20'0 0.0
2018-Jan-09 21:30N 30°10' W 093°20'0 0.0
2018-Jan-09 21:00N 30°10' W 093°20'0 0.0
2018-Jan-09 20:30N 30°10' W 093°20'0 0.0
2018-Jan-09 20:00N 30°10' W 093°20'0 0.0
2018-Jan-09 19:30N 30°10' W 093°20'0 0.0
2018-Jan-09 19:00N 30°10' W 093°20'0 0.0
2018-Jan-09 18:30N 30°10' W 093°20'0 0.0
2018-Jan-09 18:00N 30°10' W 093°20'0 0.0
2018-Jan-09 17:30N 30°10' W 093°20'0 0.0
2018-Jan-09 17:00N 30°10' W 093°20'0 0.0
2018-Jan-09 16:30N 30°10' W 093°20'0 0.0
2018-Jan-09 16:00N 30°10' W 093°20'0 0.0
2018-Jan-09 15:30N 30°10' W 093°20'0 0.0
2018-Jan-09 15:00N 30°10' W 093°20'0 0.0
2018-Jan-09 14:30N 30°10' W 093°20'0 0.0
2018-Jan-09 14:00N 30°10' W 093°20'0 0.0
2018-Jan-09 13:30N 30°10' W 093°20'0 0.0
2018-Jan-09 13:00N 30°10' W 093°20'0 0.0
2018-Jan-09 12:30N 30°10' W 093°20'0 0.0
2018-Jan-09 12:00N 30°10' W 093°20'0 0.0
2018-Jan-09 11:30N 30°10' W 093°20'0 0.0
2018-Jan-09 11:00N 30°10' W 093°20'0 0.0
2018-Jan-09 10:30N 30°10' W 093°20'0 0.0
2018-Jan-09 10:00N 30°10' W 093°20'0 0.0
2018-Jan-09 09:30N 30°10' W 093°20'0 0.0
2018-Jan-09 09:00N 30°10' W 093°20'0 0.0
2018-Jan-09 08:30N 30°10' W 093°20'0 0.0
2018-Jan-09 08:00N 30°10' W 093°20'0 0.0
2018-Jan-09 07:30N 30°10' W 093°20'0 0.0
2018-Jan-09 07:00N 30°10' W 093°20'0 0.0
2018-Jan-09 06:30N 30°10' W 093°20'0 0.0
2018-Jan-09 06:00N 30°10' W 093°20'1 1.1
2018-Jan-09 05:31N 30°09' W 093°20'3 5.4
2018-Jan-09 05:00N 30°06' W 093°20'3 5.9
2018-Jan-09 04:31N 30°03' W 093°20'3 6.0
2018-Jan-09 04:00N 30°00' W 093°20'3 6.4
2018-Jan-09 03:30N 29°57' W 093°20'4 7.1
2018-Jan-09 03:01N 29°54' W 093°21'4 7.9
2018-Jan-09 02:30N 29°50' W 093°21'4 7.1
2018-Jan-09 02:01N 29°46' W 093°21'  

Dump ship's entire track history